createdAt,value
2023-04-11T00:04:59.068Z,8.82
2023-04-11T00:10:05.532Z,8.82
2023-04-11T00:15:09.836Z,8.72
2023-04-11T00:20:14.960Z,8.68
2023-04-11T00:25:19.908Z,8.62
2023-04-11T00:30:23.053Z,8.65
2023-04-11T00:35:26.636Z,8.58
2023-04-11T00:40:31.542Z,8.56
2023-04-11T00:45:34.942Z,8.70
2023-04-11T00:50:42.760Z,8.70
2023-04-11T00:55:47.669Z,8.49
2023-04-11T01:00:51.711Z,8.34
2023-04-11T01:05:56.002Z,8.42
2023-04-11T01:11:01.178Z,8.54
2023-04-11T01:16:05.281Z,8.62
2023-04-11T01:21:10.788Z,8.50
2023-04-11T01:26:16.361Z,8.59
2023-04-11T01:31:20.009Z,8.39
2023-04-11T01:36:23.795Z,8.13
2023-04-11T01:41:31.005Z,7.88
2023-04-11T01:46:34.791Z,7.92
2023-04-11T01:51:38.464Z,7.82
2023-04-11T01:56:43.318Z,7.72
2023-04-11T02:01:46.566Z,7.71
2023-04-11T02:06:50.229Z,7.71
2023-04-11T02:11:55.097Z,7.75
2023-04-11T02:16:58.382Z,7.81
2023-04-11T02:22:02.059Z,7.78
2023-04-11T02:27:07.747Z,7.96
2023-04-11T02:32:11.454Z,7.97
2023-04-11T02:37:15.158Z,7.99
2023-04-11T02:42:20.034Z,8.13
2023-04-11T02:47:23.302Z,8.17
2023-04-11T02:52:26.966Z,8.08
2023-04-11T02:57:31.820Z,7.79
2023-04-11T03:02:35.528Z,7.82
2023-04-11T03:07:40.800Z,8.00
2023-04-11T03:12:45.656Z,8.15
2023-04-11T03:17:49.021Z,8.20
2023-04-11T03:22:52.524Z,8.23
2023-04-11T03:27:57.696Z,8.38
2023-04-11T03:33:01.939Z,8.26
2023-04-11T03:38:05.577Z,8.32
2023-04-11T03:43:10.459Z,8.31
2023-04-11T03:48:13.713Z,8.32
2023-04-11T03:53:17.128Z,8.24
2023-04-11T03:58:22.049Z,8.33
2023-04-11T04:03:25.381Z,8.32
2023-04-11T04:08:28.977Z,8.22
2023-04-11T04:13:34.696Z,8.33
2023-04-11T04:18:38.190Z,8.41
2023-04-11T04:23:47.825Z,8.53
2023-04-11T04:28:54.191Z,8.54
2023-04-11T04:33:58.800Z,8.57
2023-04-11T04:39:03.344Z,8.64
2023-04-11T04:44:09.978Z,8.80
2023-04-11T04:49:13.457Z,8.95
2023-04-11T04:54:19.566Z,9.28
2023-04-11T04:59:24.731Z,9.59
2023-04-11T05:04:28.394Z,10.00
2023-04-11T05:09:31.838Z,12.04
2023-04-11T05:14:36.698Z,18.63
2023-04-11T05:19:39.891Z,21.63
2023-04-11T05:24:43.324Z,21.76
2023-04-11T05:29:48.758Z,24.32
2023-04-11T05:34:55.980Z,27.09
2023-04-11T05:40:02.039Z,26.82
2023-04-11T05:45:09.850Z,27.32
2023-04-11T05:50:13.404Z,29.00
2023-04-11T05:55:17.267Z,27.98
2023-04-11T06:00:23.813Z,29.18
2023-04-11T06:05:31.422Z,29.56
2023-04-11T06:10:35.039Z,31.71
2023-04-11T06:15:39.728Z,31.45
2023-04-11T06:20:43.411Z,31.63
2023-04-11T06:25:46.875Z,31.36
2023-04-11T06:30:52.343Z,32.23
2023-04-11T06:35:57.022Z,31.40
2023-04-11T06:41:00.498Z,32.51
2023-04-11T06:46:06.036Z,34.49
2023-04-11T06:51:10.718Z,32.34
2023-04-11T06:56:14.244Z,33.40
2023-04-11T07:01:20.841Z,32.51
2023-04-11T07:06:24.665Z,34.65
2023-04-11T07:11:28.144Z,30.28
2023-04-11T07:16:34.761Z,32.17
2023-04-11T07:21:38.484Z,35.31
2023-04-11T07:26:42.480Z,33.82
2023-04-11T07:31:47.518Z,32.19
2023-04-11T07:36:51.475Z,28.04
2023-04-11T07:41:55.081Z,25.20
2023-04-11T07:46:59.938Z,23.03
2023-04-11T07:52:03.556Z,23.25
2023-04-11T07:57:07.059Z,23.67
2023-04-11T08:02:12.017Z,22.50
2023-04-11T08:07:15.777Z,20.91
2023-04-11T08:12:19.173Z,19.75
2023-04-11T08:17:28.592Z,22.25
2023-04-11T08:22:34.415Z,24.16
2023-04-11T08:27:38.167Z,22.91
2023-04-11T08:32:43.596Z,22.48
2023-04-11T08:37:47.165Z,22.52
2023-04-11T08:42:50.947Z,21.36
2023-04-11T08:47:56.139Z,22.11
2023-04-11T08:53:03.061Z,22.19
2023-04-11T08:58:06.780Z,21.20
2023-04-11T09:03:13.260Z,20.50
2023-04-11T09:08:18.146Z,20.89
2023-04-11T09:13:23.577Z,20.89
2023-04-11T09:18:36.106Z,21.29
2023-04-11T09:23:40.378Z,21.35
2023-04-11T09:28:44.816Z,19.62
2023-04-11T09:33:56.270Z,19.56
2023-04-11T09:39:05.148Z,19.14
2023-04-11T09:44:08.609Z,18.99
2023-04-11T09:49:13.609Z,18.87
2023-04-11T09:54:17.640Z,19.18
2023-04-11T09:59:22.586Z,19.67
2023-04-11T10:04:28.233Z,20.00
2023-04-11T10:09:33.715Z,18.98
2023-04-11T10:14:44.205Z,18.60
2023-04-11T10:19:50.841Z,18.04
2023-04-11T10:25:18.052Z,17.93
2023-04-11T10:31:02.052Z,18.93
2023-04-11T10:36:10.493Z,19.59
2023-04-11T10:41:26.610Z,19.69
2023-04-11T10:46:30.099Z,19.73
2023-04-11T10:51:35.747Z,19.21
2023-04-11T10:56:57.628Z,18.88
2023-04-11T11:02:02.013Z,18.78
2023-04-11T11:07:08.719Z,18.82
2023-04-11T11:12:14.260Z,18.40
2023-04-11T11:17:18.806Z,18.50
2023-04-11T11:22:26.485Z,18.35
2023-04-11T11:27:29.991Z,18.98
2023-04-11T11:32:33.450Z,18.99
2023-04-11T11:37:38.502Z,18.90
2023-04-11T11:42:42.588Z,18.84
2023-04-11T11:47:46.975Z,18.73
2023-04-11T11:52:51.703Z,18.60
2023-04-11T11:57:55.167Z,18.39
2023-04-11T12:03:00.843Z,18.44
2023-04-11T12:08:07.950Z,18.42
2023-04-11T12:13:19.794Z,18.40
2023-04-11T12:18:24.272Z,18.48
2023-04-11T12:23:28.900Z,18.42
2023-04-11T12:28:32.293Z,18.68
2023-04-11T12:33:36.323Z,18.62
2023-04-11T12:38:41.305Z,18.74
2023-04-11T12:43:44.784Z,18.68
2023-04-11T12:48:48.252Z,18.90
2023-04-11T12:53:53.804Z,18.88
2023-04-11T12:58:57.558Z,19.07
2023-04-11T13:04:01.380Z,19.25
2023-04-11T13:09:07.927Z,19.01
2023-04-11T13:14:11.516Z,18.65
2023-04-11T13:19:14.989Z,18.66
2023-04-11T13:24:26.350Z,18.72
2023-04-11T13:29:30.173Z,18.35
2023-04-11T13:34:33.527Z,18.21
2023-04-11T13:39:38.573Z,18.40
2023-04-11T13:44:42.170Z,18.27
2023-04-11T13:49:45.782Z,18.34
2023-04-11T13:54:50.793Z,18.16
2023-04-11T13:59:54.229Z,18.35
2023-04-11T14:04:58.255Z,18.05
2023-04-11T14:10:03.150Z,17.70
2023-04-11T14:15:09.213Z,17.38
2023-04-11T14:20:13.124Z,17.25
2023-04-11T14:25:18.118Z,16.94
2023-04-11T14:30:21.741Z,16.55
2023-04-11T14:35:25.294Z,16.48
2023-04-11T14:40:30.215Z,16.40
2023-04-11T14:45:36.188Z,16.26
2023-04-11T14:50:39.820Z,16.25
2023-04-11T14:55:44.872Z,16.13
2023-04-11T15:00:48.372Z,16.03
2023-04-11T15:05:52.033Z,16.03
2023-04-11T15:10:56.863Z,16.22
2023-04-11T15:16:01.634Z,16.06
2023-04-11T15:21:04.990Z,15.89
2023-04-11T15:26:10.056Z,15.72
2023-04-11T15:31:14.889Z,15.59
2023-04-11T15:36:18.668Z,15.52
2023-04-11T15:41:23.589Z,15.48
2023-04-11T15:46:27.295Z,15.37
2023-04-11T15:51:30.799Z,15.21
2023-04-11T15:56:35.619Z,15.05
2023-04-11T16:01:40.510Z,14.77
2023-04-11T16:06:44.696Z,14.72
2023-04-11T16:11:49.629Z,14.56
2023-04-11T16:16:54.113Z,14.35
2023-04-11T16:21:57.644Z,14.12
2023-04-11T16:27:02.829Z,13.94
2023-04-11T16:32:06.588Z,13.84
2023-04-11T16:37:10.125Z,13.72
2023-04-11T16:42:16.134Z,13.53
2023-04-11T16:47:20.605Z,13.11
2023-04-11T16:52:24.076Z,12.98
2023-04-11T16:57:29.053Z,12.77
2023-04-11T17:02:32.726Z,12.60
2023-04-11T17:07:36.487Z,12.44
2023-04-11T17:12:41.501Z,12.35
2023-04-11T17:17:45.035Z,12.13
2023-04-11T17:22:48.546Z,11.99
2023-04-11T17:27:53.357Z,11.87
2023-04-11T17:32:57.017Z,11.73
2023-04-11T17:38:00.843Z,11.57
2023-04-11T17:43:05.807Z,11.55
2023-04-11T17:48:09.389Z,11.39
2023-04-11T17:53:12.999Z,11.21
2023-04-11T17:58:18.158Z,11.02
2023-04-11T18:03:23.138Z,10.88
2023-04-11T18:08:46.908Z,10.81
2023-04-11T18:13:52.452Z,10.73
2023-04-11T18:18:56.085Z,10.54
2023-04-11T18:23:59.570Z,10.36
2023-04-11T18:29:04.545Z,10.24
2023-04-11T18:34:08.740Z,10.08
2023-04-11T18:39:12.905Z,10.01
2023-04-11T18:44:17.817Z,9.95
2023-04-11T18:49:21.780Z,9.94
2023-04-11T18:54:25.262Z,9.90
2023-04-11T18:59:32.603Z,9.84
2023-04-11T19:04:38.943Z,9.63
2023-04-11T19:09:42.503Z,9.67
2023-04-11T19:14:47.321Z,9.66
2023-04-11T19:19:50.547Z,9.60
2023-04-11T19:24:54.130Z,9.56
2023-04-11T19:29:59.166Z,9.53
2023-04-11T19:35:03.198Z,9.40
2023-04-11T19:40:08.390Z,9.31
2023-04-11T19:45:13.692Z,9.15
2023-04-11T19:50:17.204Z,8.98
2023-04-11T19:55:21.275Z,8.80
2023-04-11T20:00:27.301Z,8.68
2023-04-11T20:05:32.243Z,8.49
2023-04-11T20:10:37.072Z,8.33
2023-04-11T20:15:41.737Z,8.26
2023-04-11T20:20:45.597Z,8.12
2023-04-11T20:25:49.435Z,8.03
2023-04-11T20:30:54.483Z,7.96
2023-04-11T20:35:58.289Z,7.84
2023-04-11T20:41:04.016Z,7.66
2023-04-11T20:46:09.652Z,7.69
2023-04-11T20:51:15.123Z,7.56
2023-04-11T20:56:18.585Z,7.48
2023-04-11T21:01:23.586Z,7.38
2023-04-11T21:06:26.993Z,7.33
2023-04-11T21:11:30.576Z,7.18
2023-04-11T21:16:35.968Z,7.07
2023-04-11T21:21:40.968Z,6.93
2023-04-11T21:26:44.144Z,6.92
2023-04-11T21:31:48.982Z,6.79
2023-04-11T21:36:52.280Z,6.75
2023-04-11T21:41:55.688Z,6.61
2023-04-11T21:47:01.022Z,6.57
2023-04-11T21:52:04.849Z,6.46
2023-04-11T21:57:08.369Z,6.39
2023-04-11T22:02:13.434Z,6.40
2023-04-11T22:07:18.496Z,6.33
2023-04-11T22:12:22.005Z,6.27
2023-04-11T22:17:26.929Z,6.20
2023-04-11T22:22:32.461Z,6.16
2023-04-11T22:27:35.616Z,5.99
2023-04-11T22:32:41.049Z,5.89
2023-04-11T22:37:45.576Z,5.81
2023-04-11T22:42:52.041Z,5.78
2023-04-11T22:48:00.088Z,5.74
2023-04-11T22:53:03.800Z,5.68
2023-04-11T22:58:08.053Z,5.62
2023-04-11T23:03:14.128Z,5.61
2023-04-11T23:08:17.657Z,5.53
2023-04-11T23:13:21.087Z,5.42
2023-04-11T23:18:26.013Z,5.37
2023-04-11T23:23:29.283Z,5.31
2023-04-11T23:28:32.719Z,4.96
2023-04-11T23:33:37.545Z,5.14
2023-04-11T23:38:40.788Z,5.18
2023-04-11T23:43:44.213Z,5.11
2023-04-11T23:48:49.120Z,5.08
2023-04-11T23:53:52.395Z,5.15
2023-04-11T23:58:56.000Z,5.08
